sensor_id;sensor_type;location;lat;lon;timestamp;temperature;humidity
66312;HTU21D;53114;51.138;6.008;2022-11-02T00:00:34;15.04;118.99
66312;HTU21D;53114;51.138;6.008;2022-11-02T00:03:00;14.95;118.99
66312;HTU21D;53114;51.138;6.008;2022-11-02T00:05:27;14.89;118.99
66312;HTU21D;53114;51.138;6.008;2022-11-02T00:07:54;14.81;118.99
66312;HTU21D;53114;51.138;6.008;2022-11-02T00:10:21;14.85;118.99
66312;HTU21D;53114;51.138;6.008;2022-11-02T00:12:49;14.80;118.99
66312;HTU21D;53114;51.138;6.008;2022-11-02T00:15:15;14.75;118.99
66312;HTU21D;53114;51.138;6.008;2022-11-02T00:17:47;14.54;118.99
66312;HTU21D;53114;51.138;6.008;2022-11-02T00:20:17;14.69;118.99
66312;HTU21D;53114;51.138;6.008;2022-11-02T00:22:47;14.72;118.99
66312;HTU21D;53114;51.138;6.008;2022-11-02T00:25:18;14.72;118.99
66312;HTU21D;53114;51.138;6.008;2022-11-02T00:27:45;14.60;118.99
66312;HTU21D;53114;51.138;6.008;2022-11-02T00:30:13;14.66;118.99
66312;HTU21D;53114;51.138;6.008;2022-11-02T00:32:39;14.63;118.99
66312;HTU21D;53114;51.138;6.008;2022-11-02T00:35:05;14.62;118.99
66312;HTU21D;53114;51.138;6.008;2022-11-02T00:37:32;14.58;118.99
66312;HTU21D;53114;51.138;6.008;2022-11-02T00:39:57;14.48;118.99
66312;HTU21D;53114;51.138;6.008;2022-11-02T00:42:23;14.48;118.99
66312;HTU21D;53114;51.138;6.008;2022-11-02T00:44:50;14.48;118.99
66312;HTU21D;53114;51.138;6.008;2022-11-02T00:47:16;14.48;118.99
66312;HTU21D;53114;51.138;6.008;2022-11-02T00:49:45;14.51;118.99
66312;HTU21D;53114;51.138;6.008;2022-11-02T00:52:11;14.48;118.99
66312;HTU21D;53114;51.138;6.008;2022-11-02T00:54:37;14.40;118.99
66312;HTU21D;53114;51.138;6.008;2022-11-02T00:57:03;14.44;118.99
66312;HTU21D;53114;51.138;6.008;2022-11-02T00:59:29;14.52;118.99
66312;HTU21D;53114;51.138;6.008;2022-11-02T01:01:56;14.62;118.99
66312;HTU21D;53114;51.138;6.008;2022-11-02T01:04:22;14.70;118.99
66312;HTU21D;53114;51.138;6.008;2022-11-02T01:06:48;14.75;118.99
66312;HTU21D;53114;51.138;6.008;2022-11-02T01:09:14;14.82;118.99
66312;HTU21D;53114;51.138;6.008;2022-11-02T01:11:41;14.84;118.99
66312;HTU21D;53114;51.138;6.008;2022-11-02T01:14:08;14.82;118.99
66312;HTU21D;53114;51.138;6.008;2022-11-02T01:16:35;14.75;118.99
66312;HTU21D;53114;51.138;6.008;2022-11-02T01:19:02;14.70;118.99
66312;HTU21D;53114;51.138;6.008;2022-11-02T01:21:28;14.59;118.99
66312;HTU21D;53114;51.138;6.008;2022-11-02T01:23:55;14.54;118.99
66312;HTU21D;53114;51.138;6.008;2022-11-02T01:26:21;14.62;118.99
66312;HTU21D;53114;51.138;6.008;2022-11-02T01:28:47;14.64;118.99
66312;HTU21D;53114;51.138;6.008;2022-11-02T01:31:13;14.68;118.99
66312;HTU21D;53114;51.138;6.008;2022-11-02T01:33:43;14.68;118.99
66312;HTU21D;53114;51.138;6.008;2022-11-02T01:36:11;14.67;118.99
66312;HTU21D;53114;51.138;6.008;2022-11-02T01:38:37;14.67;118.99
66312;HTU21D;53114;51.138;6.008;2022-11-02T01:41:04;14.62;118.99
66312;HTU21D;53114;51.138;6.008;2022-11-02T01:43:32;14.55;118.99
66312;HTU21D;53114;51.138;6.008;2022-11-02T01:48:48;14.45;118.99
66312;HTU21D;53114;51.138;6.008;2022-11-02T01:51:38;14.48;118.99
66312;HTU21D;53114;51.138;6.008;2022-11-02T01:54:13;14.52;118.99
66312;HTU21D;53114;51.138;6.008;2022-11-02T01:56:47;14.65;118.99
66312;HTU21D;53114;51.138;6.008;2022-11-02T01:59:18;14.67;118.99
66312;HTU21D;53114;51.138;6.008;2022-11-02T02:01:47;14.72;118.99
66312;HTU21D;53114;51.138;6.008;2022-11-02T02:04:14;14.80;118.99
66312;HTU21D;53114;51.138;6.008;2022-11-02T02:06:42;14.74;118.99
66312;HTU21D;53114;51.138;6.008;2022-11-02T02:09:09;14.80;118.99
66312;HTU21D;53114;51.138;6.008;2022-11-02T02:11:39;14.72;118.99
66312;HTU21D;53114;51.138;6.008;2022-11-02T02:14:10;14.58;118.99
66312;HTU21D;53114;51.138;6.008;2022-11-02T02:33:56;14.14;118.99
66312;HTU21D;53114;51.138;6.008;2022-11-02T02:38:56;14.13;118.99
66312;HTU21D;53114;51.138;6.008;2022-11-02T02:44:38;14.07;118.99
66312;HTU21D;53114;51.138;6.008;2022-11-02T02:47:20;14.07;118.99
66312;HTU21D;53114;51.138;6.008;2022-11-02T02:49:57;14.06;118.99
66312;HTU21D;53114;51.138;6.008;2022-11-02T02:52:29;13.99;118.99
66312;HTU21D;53114;51.138;6.008;2022-11-02T02:55:04;13.96;118.99
66312;HTU21D;53114;51.138;6.008;2022-11-02T02:57:34;13.93;118.99
66312;HTU21D;53114;51.138;6.008;2022-11-02T03:00:01;13.89;118.99
66312;HTU21D;53114;51.138;6.008;2022-11-02T03:02:35;13.88;118.99
66312;HTU21D;53114;51.138;6.008;2022-11-02T03:05:24;13.89;118.99
66312;HTU21D;53114;51.138;6.008;2022-11-02T03:07:52;13.89;118.99
66312;HTU21D;53114;51.138;6.008;2022-11-02T03:17:09;13.79;118.99
66312;HTU21D;53114;51.138;6.008;2022-11-02T03:22:29;13.77;118.99
66312;HTU21D;53114;51.138;6.008;2022-11-02T03:25:06;13.67;118.99
66312;HTU21D;53114;51.138;6.008;2022-11-02T03:27:40;13.66;118.99
66312;HTU21D;53114;51.138;6.008;2022-11-02T03:30:33;13.62;118.99
66312;HTU21D;53114;51.138;6.008;2022-11-02T03:33:25;13.60;118.99
66312;HTU21D;53114;51.138;6.008;2022-11-02T03:36:03;13.58;118.99
66312;HTU21D;53114;51.138;6.008;2022-11-02T03:38:43;13.63;118.99
66312;HTU21D;53114;51.138;6.008;2022-11-02T03:41:19;13.66;118.99
66312;HTU21D;53114;51.138;6.008;2022-11-02T03:44:02;13.65;118.99
66312;HTU21D;53114;51.138;6.008;2022-11-02T03:46:35;13.67;118.99
66312;HTU21D;53114;51.138;6.008;2022-11-02T03:49:06;13.63;118.99
66312;HTU21D;53114;51.138;6.008;2022-11-02T03:51:41;13.64;118.99
66312;HTU21D;53114;51.138;6.008;2022-11-02T03:54:27;13.66;118.99
66312;HTU21D;53114;51.138;6.008;2022-11-02T03:57:01;13.62;118.99
66312;HTU21D;53114;51.138;6.008;2022-11-02T03:59:32;13.61;118.99
66312;HTU21D;53114;51.138;6.008;2022-11-02T04:02:01;13.59;118.99
66312;HTU21D;53114;51.138;6.008;2022-11-02T04:04:28;13.59;118.99
66312;HTU21D;53114;51.138;6.008;2022-11-02T04:06:55;13.58;118.99
66312;HTU21D;53114;51.138;6.008;2022-11-02T04:09:21;13.56;118.99
66312;HTU21D;53114;51.138;6.008;2022-11-02T04:11:47;13.53;118.99
66312;HTU21D;53114;51.138;6.008;2022-11-02T04:14:32;13.51;118.99
66312;HTU21D;53114;51.138;6.008;2022-11-02T04:17:10;13.53;118.99
66312;HTU21D;53114;51.138;6.008;2022-11-02T04:19:55;13.53;118.99
66312;HTU21D;53114;51.138;6.008;2022-11-02T04:22:22;13.49;118.99
66312;HTU21D;53114;51.138;6.008;2022-11-02T04:25:16;13.47;118.99
66312;HTU21D;53114;51.138;6.008;2022-11-02T04:28:07;13.47;118.99
66312;HTU21D;53114;51.138;6.008;2022-11-02T04:30:37;13.45;118.99
66312;HTU21D;53114;51.138;6.008;2022-11-02T04:33:03;13.47;118.99
66312;HTU21D;53114;51.138;6.008;2022-11-02T04:35:53;13.44;118.99
66312;HTU21D;53114;51.138;6.008;2022-11-02T04:38:20;13.41;118.99
66312;HTU21D;53114;51.138;6.008;2022-11-02T04:41:09;13.44;118.99
66312;HTU21D;53114;51.138;6.008;2022-11-02T04:44:04;13.41;118.99
66312;HTU21D;53114;51.138;6.008;2022-11-02T04:46:33;13.41;118.99
66312;HTU21D;53114;51.138;6.008;2022-11-02T04:49:02;13.37;118.99
66312;HTU21D;53114;51.138;6.008;2022-11-02T04:51:32;13.35;118.99
66312;HTU21D;53114;51.138;6.008;2022-11-02T04:54:00;13.33;118.99
66312;HTU21D;53114;51.138;6.008;2022-11-02T04:56:28;13.30;118.99
66312;HTU21D;53114;51.138;6.008;2022-11-02T04:58:57;13.27;118.99
66312;HTU21D;53114;51.138;6.008;2022-11-02T05:01:26;13.29;118.99
66312;HTU21D;53114;51.138;6.008;2022-11-02T05:03:56;13.27;118.99
66312;HTU21D;53114;51.138;6.008;2022-11-02T05:06:24;13.24;118.99
66312;HTU21D;53114;51.138;6.008;2022-11-02T05:08:51;13.22;118.99
66312;HTU21D;53114;51.138;6.008;2022-11-02T05:11:18;13.22;118.99
66312;HTU21D;53114;51.138;6.008;2022-11-02T05:13:47;13.21;118.99
66312;HTU21D;53114;51.138;6.008;2022-11-02T05:16:15;13.18;118.99
66312;HTU21D;53114;51.138;6.008;2022-11-02T05:18:42;13.16;118.99
66312;HTU21D;53114;51.138;6.008;2022-11-02T05:21:10;13.15;118.99
66312;HTU21D;53114;51.138;6.008;2022-11-02T05:23:37;13.16;118.99
66312;HTU21D;53114;51.138;6.008;2022-11-02T05:26:07;13.08;118.99
66312;HTU21D;53114;51.138;6.008;2022-11-02T05:28:34;13.07;118.99
66312;HTU21D;53114;51.138;6.008;2022-11-02T05:31:05;13.06;118.99
66312;HTU21D;53114;51.138;6.008;2022-11-02T05:33:34;13.06;118.99
66312;HTU21D;53114;51.138;6.008;2022-11-02T05:36:06;13.04;118.99
66312;HTU21D;53114;51.138;6.008;2022-11-02T05:38:35;13.06;118.99
66312;HTU21D;53114;51.138;6.008;2022-11-02T05:41:01;13.01;118.99
66312;HTU21D;53114;51.138;6.008;2022-11-02T05:43:45;13.05;118.99
66312;HTU21D;53114;51.138;6.008;2022-11-02T05:46:13;13.02;118.99
66312;HTU21D;53114;51.138;6.008;2022-11-02T05:48:40;12.99;118.99
66312;HTU21D;53114;51.138;6.008;2022-11-02T05:51:08;12.97;118.99
66312;HTU21D;53114;51.138;6.008;2022-11-02T05:53:34;12.96;118.99
66312;HTU21D;53114;51.138;6.008;2022-11-02T05:56:08;12.95;118.99
66312;HTU21D;53114;51.138;6.008;2022-11-02T05:58:35;12.94;118.99
66312;HTU21D;53114;51.138;6.008;2022-11-02T06:01:05;12.94;118.99
66312;HTU21D;53114;51.138;6.008;2022-11-02T06:03:32;12.92;118.99
66312;HTU21D;53114;51.138;6.008;2022-11-02T06:06:01;12.90;118.99
66312;HTU21D;53114;51.138;6.008;2022-11-02T06:08:32;12.89;118.99
66312;HTU21D;53114;51.138;6.008;2022-11-02T06:11:09;12.88;118.99
66312;HTU21D;53114;51.138;6.008;2022-11-02T06:13:36;12.86;118.99
66312;HTU21D;53114;51.138;6.008;2022-11-02T06:16:05;12.85;118.99
66312;HTU21D;53114;51.138;6.008;2022-11-02T06:18:35;12.88;118.99
66312;HTU21D;53114;51.138;6.008;2022-11-02T06:21:01;12.82;118.99
66312;HTU21D;53114;51.138;6.008;2022-11-02T06:23:28;12.82;118.99
66312;HTU21D;53114;51.138;6.008;2022-11-02T06:25:56;12.82;118.99
66312;HTU21D;53114;51.138;6.008;2022-11-02T06:28:23;12.85;118.99
66312;HTU21D;53114;51.138;6.008;2022-11-02T06:30:50;12.82;118.99
66312;HTU21D;53114;51.138;6.008;2022-11-02T06:33:18;12.84;118.99
66312;HTU21D;53114;51.138;6.008;2022-11-02T06:35:46;12.82;118.99
66312;HTU21D;53114;51.138;6.008;2022-11-02T06:38:13;12.80;118.99
66312;HTU21D;53114;51.138;6.008;2022-11-02T06:40:39;12.78;118.99
66312;HTU21D;53114;51.138;6.008;2022-11-02T06:43:05;12.78;118.99
66312;HTU21D;53114;51.138;6.008;2022-11-02T06:45:31;12.78;118.99
66312;HTU21D;53114;51.138;6.008;2022-11-02T06:47:57;12.77;118.99
66312;HTU21D;53114;51.138;6.008;2022-11-02T06:50:23;12.77;118.99
66312;HTU21D;53114;51.138;6.008;2022-11-02T06:52:50;12.76;118.99
66312;HTU21D;53114;51.138;6.008;2022-11-02T06:55:17;12.78;118.99
66312;HTU21D;53114;51.138;6.008;2022-11-02T06:57:44;12.76;118.99
66312;HTU21D;53114;51.138;6.008;2022-11-02T07:00:14;12.76;118.99
66312;HTU21D;53114;51.138;6.008;2022-11-02T07:02:44;12.80;118.99
66312;HTU21D;53114;51.138;6.008;2022-11-02T07:05:12;12.78;118.99
66312;HTU21D;53114;51.138;6.008;2022-11-02T07:07:39;12.80;118.99
66312;HTU21D;53114;51.138;6.008;2022-11-02T07:10:05;12.80;118.99
66312;HTU21D;53114;51.138;6.008;2022-11-02T07:12:35;12.84;118.99
66312;HTU21D;53114;51.138;6.008;2022-11-02T07:15:01;12.84;118.99
66312;HTU21D;53114;51.138;6.008;2022-11-02T07:17:27;12.87;118.99
66312;HTU21D;53114;51.138;6.008;2022-11-02T07:19:53;12.86;118.99
66312;HTU21D;53114;51.138;6.008;2022-11-02T07:22:19;12.89;118.99
66312;HTU21D;53114;51.138;6.008;2022-11-02T07:24:45;12.88;118.99
66312;HTU21D;53114;51.138;6.008;2022-11-02T07:27:11;12.87;118.99
66312;HTU21D;53114;51.138;6.008;2022-11-02T07:29:46;12.86;118.99
66312;HTU21D;53114;51.138;6.008;2022-11-02T07:32:14;12.91;118.99
66312;HTU21D;53114;51.138;6.008;2022-11-02T07:34:40;12.93;118.99
66312;HTU21D;53114;51.138;6.008;2022-11-02T07:37:06;12.94;118.99
66312;HTU21D;53114;51.138;6.008;2022-11-02T07:39:32;12.96;118.99
66312;HTU21D;53114;51.138;6.008;2022-11-02T07:41:58;12.99;118.99
66312;HTU21D;53114;51.138;6.008;2022-11-02T07:44:24;12.99;118.99
66312;HTU21D;53114;51.138;6.008;2022-11-02T07:46:53;13.03;118.99
66312;HTU21D;53114;51.138;6.008;2022-11-02T07:49:19;13.06;118.99
66312;HTU21D;53114;51.138;6.008;2022-11-02T07:51:47;13.06;118.99
66312;HTU21D;53114;51.138;6.008;2022-11-02T07:54:13;13.10;118.99
66312;HTU21D;53114;51.138;6.008;2022-11-02T07:56:39;13.14;118.99
66312;HTU21D;53114;51.138;6.008;2022-11-02T07:59:05;13.16;118.99
66312;HTU21D;53114;51.138;6.008;2022-11-02T08:01:31;13.17;118.99
66312;HTU21D;53114;51.138;6.008;2022-11-02T08:04:00;13.19;118.99
66312;HTU21D;53114;51.138;6.008;2022-11-02T08:06:26;13.18;118.99
66312;HTU21D;53114;51.138;6.008;2022-11-02T08:08:52;13.24;118.99
66312;HTU21D;53114;51.138;6.008;2022-11-02T08:11:18;13.31;118.99
66312;HTU21D;53114;51.138;6.008;2022-11-02T08:13:44;13.36;118.99
66312;HTU21D;53114;51.138;6.008;2022-11-02T08:16:10;13.40;118.99
66312;HTU21D;53114;51.138;6.008;2022-11-02T08:18:36;13.41;118.99
66312;HTU21D;53114;51.138;6.008;2022-11-02T08:21:03;13.46;118.99
66312;HTU21D;53114;51.138;6.008;2022-11-02T08:23:29;13.47;118.99
66312;HTU21D;53114;51.138;6.008;2022-11-02T08:25:58;13.52;118.99
66312;HTU21D;53114;51.138;6.008;2022-11-02T08:28:30;13.61;118.99
66312;HTU21D;53114;51.138;6.008;2022-11-02T08:30:57;13.68;118.99
66312;HTU21D;53114;51.138;6.008;2022-11-02T08:33:24;13.75;118.99
66312;HTU21D;53114;51.138;6.008;2022-11-02T08:35:49;13.83;118.99
66312;HTU21D;53114;51.138;6.008;2022-11-02T08:38:16;13.91;118.99
66312;HTU21D;53114;51.138;6.008;2022-11-02T08:40:43;14.04;118.99
66312;HTU21D;53114;51.138;6.008;2022-11-02T08:43:15;14.41;118.99
66312;HTU21D;53114;51.138;6.008;2022-11-02T08:45:43;14.89;118.99
66312;HTU21D;53114;51.138;6.008;2022-11-02T08:48:10;15.08;118.99
66312;HTU21D;53114;51.138;6.008;2022-11-02T08:50:36;15.34;118.99
66312;HTU21D;53114;51.138;6.008;2022-11-02T08:53:03;16.04;118.99
66312;HTU21D;53114;51.138;6.008;2022-11-02T08:55:30;16.90;118.29
66312;HTU21D;53114;51.138;6.008;2022-11-02T08:57:58;17.75;109.04
66312;HTU21D;53114;51.138;6.008;2022-11-02T09:00:26;17.93;103.03
66312;HTU21D;53114;51.138;6.008;2022-11-02T09:03:12;17.78;102.45
66312;HTU21D;53114;51.138;6.008;2022-11-02T09:05:42;17.38;101.33
66312;HTU21D;53114;51.138;6.008;2022-11-02T09:08:17;17.26;102.96
66312;HTU21D;53114;51.138;6.008;2022-11-02T09:10:46;17.40;104.52
66312;HTU21D;53114;51.138;6.008;2022-11-02T09:13:14;17.60;102.35
66312;HTU21D;53114;51.138;6.008;2022-11-02T09:16:07;17.64;101.66
66312;HTU21D;53114;51.138;6.008;2022-11-02T09:18:33;17.70;102.38
66312;HTU21D;53114;51.138;6.008;2022-11-02T09:21:03;17.94;101.25
66312;HTU21D;53114;51.138;6.008;2022-11-02T09:23:32;18.09;97.78
66312;HTU21D;53114;51.138;6.008;2022-11-02T09:25:58;18.18;99.96
66312;HTU21D;53114;51.138;6.008;2022-11-02T09:28:25;18.06;101.28
66312;HTU21D;53114;51.138;6.008;2022-11-02T09:30:51;18.04;100.66
66312;HTU21D;53114;51.138;6.008;2022-11-02T09:33:17;18.06;99.44
66312;HTU21D;53114;51.138;6.008;2022-11-02T09:35:46;18.13;99.99
66312;HTU21D;53114;51.138;6.008;2022-11-02T09:38:13;18.27;96.85
66312;HTU21D;53114;51.138;6.008;2022-11-02T09:40:44;18.48;90.69
66312;HTU21D;53114;51.138;6.008;2022-11-02T09:51:19;18.06;97.27
66312;HTU21D;53114;51.138;6.008;2022-11-02T09:54:17;18.12;96.56
66312;HTU21D;53114;51.138;6.008;2022-11-02T09:56:45;18.38;93.53
66312;HTU21D;53114;51.138;6.008;2022-11-02T09:59:21;18.26;91.89
66312;HTU21D;53114;51.138;6.008;2022-11-02T10:05:00;17.56;98.85
66312;HTU21D;53114;51.138;6.008;2022-11-02T10:13:16;17.11;110.41
66312;HTU21D;53114;51.138;6.008;2022-11-02T10:15:55;17.44;108.21
66312;HTU21D;53114;51.138;6.008;2022-11-02T10:18:26;17.99;102.15
66312;HTU21D;53114;51.138;6.008;2022-11-02T10:21:06;18.35;94.88
66312;HTU21D;53114;51.138;6.008;2022-11-02T10:23:44;18.47;100.71
66312;HTU21D;53114;51.138;6.008;2022-11-02T10:26:18;19.02;97.95
66312;HTU21D;53114;51.138;6.008;2022-11-02T10:28:48;19.32;93.40
66312;HTU21D;53114;51.138;6.008;2022-11-02T10:31:24;19.33;92.12
66312;HTU21D;53114;51.138;6.008;2022-11-02T10:33:52;19.48;88.70
66312;HTU21D;53114;51.138;6.008;2022-11-02T10:36:32;19.91;80.34
66312;HTU21D;53114;51.138;6.008;2022-11-02T10:47:21;20.16;65.31
66312;HTU21D;53114;51.138;6.008;2022-11-02T10:49:56;19.82;64.12
66312;HTU21D;53114;51.138;6.008;2022-11-02T10:52:37;19.29;73.46
66312;HTU21D;53114;51.138;6.008;2022-11-02T10:55:03;18.93;80.02
66312;HTU21D;53114;51.138;6.008;2022-11-02T10:57:38;18.84;80.88
66312;HTU21D;53114;51.138;6.008;2022-11-02T11:05:27;18.66;83.02
66312;HTU21D;53114;51.138;6.008;2022-11-02T11:07:53;18.24;90.67
66312;HTU21D;53114;51.138;6.008;2022-11-02T11:10:23;18.42;96.25
66312;HTU21D;53114;51.138;6.008;2022-11-02T11:12:49;18.69;93.69
66312;HTU21D;53114;51.138;6.008;2022-11-02T11:15:28;18.59;83.69
66312;HTU21D;53114;51.138;6.008;2022-11-02T11:17:58;18.47;85.99
66312;HTU21D;53114;51.138;6.008;2022-11-02T11:20:35;18.37;85.11
66312;HTU21D;53114;51.138;6.008;2022-11-02T11:26:05;17.31;93.72
66312;HTU21D;53114;51.138;6.008;2022-11-02T11:28:36;16.98;98.10
66312;HTU21D;53114;51.138;6.008;2022-11-02T11:31:09;16.76;101.12
66312;HTU21D;53114;51.138;6.008;2022-11-02T11:33:52;16.58;102.81
66312;HTU21D;53114;51.138;6.008;2022-11-02T11:36:26;16.48;104.73
66312;HTU21D;53114;51.138;6.008;2022-11-02T11:38:56;16.35;103.75
66312;HTU21D;53114;51.138;6.008;2022-11-02T11:41:24;16.22;104.37
66312;HTU21D;53114;51.138;6.008;2022-11-02T11:43:52;16.11;106.13
66312;HTU21D;53114;51.138;6.008;2022-11-02T11:46:18;16.04;106.61
66312;HTU21D;53114;51.138;6.008;2022-11-02T11:48:51;16.07;107.62
66312;HTU21D;53114;51.138;6.008;2022-11-02T11:51:38;16.10;108.18
66312;HTU21D;53114;51.138;6.008;2022-11-02T11:54:21;16.12;109.23
66312;HTU21D;53114;51.138;6.008;2022-11-02T11:56:50;16.13;109.48
66312;HTU21D;53114;51.138;6.008;2022-11-02T11:59:58;16.12;110.31
66312;HTU21D;53114;51.138;6.008;2022-11-02T12:04:50;16.31;112.58
66312;HTU21D;53114;51.138;6.008;2022-11-02T12:10:39;16.71;108.07
66312;HTU21D;53114;51.138;6.008;2022-11-02T12:13:31;16.63;108.85
66312;HTU21D;53114;51.138;6.008;2022-11-02T12:16:13;16.61;109.68
66312;HTU21D;53114;51.138;6.008;2022-11-02T12:41:11;16.70;109.80
66312;HTU21D;53114;51.138;6.008;2022-11-02T12:43:44;16.64;110.28
66312;HTU21D;53114;51.138;6.008;2022-11-02T12:49:22;16.52;107.82
66312;HTU21D;53114;51.138;6.008;2022-11-02T12:52:23;16.37;109.11
66312;HTU21D;53114;51.138;6.008;2022-11-02T12:54:59;16.37;109.30
66312;HTU21D;53114;51.138;6.008;2022-11-02T12:57:35;16.47;109.69
66312;HTU21D;53114;51.138;6.008;2022-11-02T13:00:15;16.54;109.55
66312;HTU21D;53114;51.138;6.008;2022-11-02T13:03:45;16.55;109.27
66312;HTU21D;53114;51.138;6.008;2022-11-02T13:05:59;16.56;108.12
66312;HTU21D;53114;51.138;6.008;2022-11-02T13:11:21;16.61;107.32
66312;HTU21D;53114;51.138;6.008;2022-11-02T13:13:56;16.72;104.01
66312;HTU21D;53114;51.138;6.008;2022-11-02T13:16:34;16.72;104.93
66312;HTU21D;53114;51.138;6.008;2022-11-02T13:19:03;16.70;104.44
66312;HTU21D;53114;51.138;6.008;2022-11-02T13:21:38;16.65;105.17
66312;HTU21D;53114;51.138;6.008;2022-11-02T13:24:16;16.61;107.23
66312;HTU21D;53114;51.138;6.008;2022-11-02T13:26:48;16.60;106.94
66312;HTU21D;53114;51.138;6.008;2022-11-02T13:29:33;16.56;105.89
66312;HTU21D;53114;51.138;6.008;2022-11-02T13:32:20;16.52;105.61
66312;HTU21D;53114;51.138;6.008;2022-11-02T13:34:51;16.49;105.11
66312;HTU21D;53114;51.138;6.008;2022-11-02T13:37:40;16.46;106.86
66312;HTU21D;53114;51.138;6.008;2022-11-02T13:40:29;16.34;107.44
66312;HTU21D;53114;51.138;6.008;2022-11-02T13:51:36;16.30;108.94
66312;HTU21D;53114;51.138;6.008;2022-11-02T13:54:19;16.32;108.84
66312;HTU21D;53114;51.138;6.008;2022-11-02T13:56:53;16.35;108.40
66312;HTU21D;53114;51.138;6.008;2022-11-02T13:59:42;16.34;107.18
66312;HTU21D;53114;51.138;6.008;2022-11-02T14:02:15;16.27;107.56
66312;HTU21D;53114;51.138;6.008;2022-11-02T14:04:43;16.20;108.01
66312;HTU21D;53114;51.138;6.008;2022-11-02T14:07:34;16.18;109.18
66312;HTU21D;53114;51.138;6.008;2022-11-02T14:10:12;16.25;108.93
66312;HTU21D;53114;51.138;6.008;2022-11-02T14:12:45;16.30;108.14
66312;HTU21D;53114;51.138;6.008;2022-11-02T14:20:46;16.20;109.16
66312;HTU21D;53114;51.138;6.008;2022-11-02T14:25:48;16.05;109.32
66312;HTU21D;53114;51.138;6.008;2022-11-02T14:49:05;15.84;110.90
66312;HTU21D;53114;51.138;6.008;2022-11-02T14:51:40;15.81;110.16
66312;HTU21D;53114;51.138;6.008;2022-11-02T14:54:18;15.77;109.36
66312;HTU21D;53114;51.138;6.008;2022-11-02T14:56:59;15.75;109.52
66312;HTU21D;53114;51.138;6.008;2022-11-02T14:59:34;15.71;109.27
66312;HTU21D;53114;51.138;6.008;2022-11-02T15:02:20;15.68;108.60
66312;HTU21D;53114;51.138;6.008;2022-11-02T15:05:57;15.55;108.88
66312;HTU21D;53114;51.138;6.008;2022-11-02T15:08:56;15.44;110.26
66312;HTU21D;53114;51.138;6.008;2022-11-02T15:11:56;15.33;110.61
66312;HTU21D;53114;51.138;6.008;2022-11-02T15:20:35;15.22;112.80
66312;HTU21D;53114;51.138;6.008;2022-11-02T15:27:01;15.11;113.29
66312;HTU21D;53114;51.138;6.008;2022-11-02T15:30:29;14.99;114.08
66312;HTU21D;53114;51.138;6.008;2022-11-02T15:33:33;14.88;115.70
66312;HTU21D;53114;51.138;6.008;2022-11-02T15:36:34;14.70;118.12
66312;HTU21D;53114;51.138;6.008;2022-11-02T15:39:25;14.52;118.99
66312;HTU21D;53114;51.138;6.008;2022-11-02T15:42:36;14.34;118.99
66312;HTU21D;53114;51.138;6.008;2022-11-02T15:49:06;13.98;118.99
66312;HTU21D;53114;51.138;6.008;2022-11-02T15:52:39;13.89;118.99
66312;HTU21D;53114;51.138;6.008;2022-11-02T15:55:48;13.76;118.99
66312;HTU21D;53114;51.138;6.008;2022-11-02T16:03:06;13.44;118.99
66312;HTU21D;53114;51.138;6.008;2022-11-02T16:06:54;13.27;118.99
66312;HTU21D;53114;51.138;6.008;2022-11-02T16:10:09;13.17;118.99
66312;HTU21D;53114;51.138;6.008;2022-11-02T16:13:21;13.02;118.99
66312;HTU21D;53114;51.138;6.008;2022-11-02T16:21:14;12.74;118.99
66312;HTU21D;53114;51.138;6.008;2022-11-02T16:25:18;12.65;118.99
66312;HTU21D;53114;51.138;6.008;2022-11-02T16:32:06;12.41;118.99
66312;HTU21D;53114;51.138;6.008;2022-11-02T16:38:58;12.20;118.99
66312;HTU21D;53114;51.138;6.008;2022-11-02T16:42:23;12.06;118.99
66312;HTU21D;53114;51.138;6.008;2022-11-02T16:45:40;11.92;118.99
66312;HTU21D;53114;51.138;6.008;2022-11-02T16:52:40;11.75;118.99
66312;HTU21D;53114;51.138;6.008;2022-11-02T16:56:35;11.71;118.99
66312;HTU21D;53114;51.138;6.008;2022-11-02T17:00:04;11.68;118.99
66312;HTU21D;53114;51.138;6.008;2022-11-02T17:15:29;11.47;118.99
66312;HTU21D;53114;51.138;6.008;2022-11-02T17:31:43;11.40;118.99
66312;HTU21D;53114;51.138;6.008;2022-11-02T17:34:56;11.37;118.99
66312;HTU21D;53114;51.138;6.008;2022-11-02T17:37:56;11.33;118.99
66312;HTU21D;53114;51.138;6.008;2022-11-02T17:55:42;11.07;118.99
66312;HTU21D;53114;51.138;6.008;2022-11-02T18:09:23;11.08;118.99
66312;HTU21D;53114;51.138;6.008;2022-11-02T18:13:13;11.08;118.99
66312;HTU21D;53114;51.138;6.008;2022-11-02T18:16:47;11.09;118.99
66312;HTU21D;53114;51.138;6.008;2022-11-02T18:20:11;11.12;118.99
66312;HTU21D;53114;51.138;6.008;2022-11-02T18:23:23;11.15;118.99
66312;HTU21D;53114;51.138;6.008;2022-11-02T18:26:31;11.13;118.99
66312;HTU21D;53114;51.138;6.008;2022-11-02T18:29:13;11.11;118.99
66312;HTU21D;53114;51.138;6.008;2022-11-02T18:32:11;11.04;118.99
66312;HTU21D;53114;51.138;6.008;2022-11-02T18:40:01;10.97;118.99
66312;HTU21D;53114;51.138;6.008;2022-11-02T18:43:20;10.98;118.99
66312;HTU21D;53114;51.138;6.008;2022-11-02T18:50:22;10.98;118.99
66312;HTU21D;53114;51.138;6.008;2022-11-02T18:53:57;11.01;118.99
66312;HTU21D;53114;51.138;6.008;2022-11-02T18:58:09;10.98;118.99
66312;HTU21D;53114;51.138;6.008;2022-11-02T19:02:22;10.97;118.99
66312;HTU21D;53114;51.138;6.008;2022-11-02T19:05:46;10.95;118.99
66312;HTU21D;53114;51.138;6.008;2022-11-02T19:12:38;11.00;118.99
66312;HTU21D;53114;51.138;6.008;2022-11-02T19:18:20;11.08;118.99
66312;HTU21D;53114;51.138;6.008;2022-11-02T19:21:39;11.11;118.99
66312;HTU21D;53114;51.138;6.008;2022-11-02T19:24:44;11.17;118.99
66312;HTU21D;53114;51.138;6.008;2022-11-02T19:27:54;11.22;118.99
66312;HTU21D;53114;51.138;6.008;2022-11-02T19:30:48;11.25;118.99
66312;HTU21D;53114;51.138;6.008;2022-11-02T19:33:30;11.28;118.99
66312;HTU21D;53114;51.138;6.008;2022-11-02T19:36:09;11.29;118.99
66312;HTU21D;53114;51.138;6.008;2022-11-02T19:38:55;11.31;118.99
66312;HTU21D;53114;51.138;6.008;2022-11-02T19:42:36;11.38;118.99
66312;HTU21D;53114;51.138;6.008;2022-11-02T19:45:37;11.43;118.99
66312;HTU21D;53114;51.138;6.008;2022-11-02T19:48:35;11.44;118.99
66312;HTU21D;53114;51.138;6.008;2022-11-02T19:51:47;11.46;118.99
66312;HTU21D;53114;51.138;6.008;2022-11-02T19:55:01;11.46;118.99
66312;HTU21D;53114;51.138;6.008;2022-11-02T19:58:25;11.36;118.99
66312;HTU21D;53114;51.138;6.008;2022-11-02T20:05:15;11.55;118.99
66312;HTU21D;53114;51.138;6.008;2022-11-02T20:08:37;11.59;118.99
66312;HTU21D;53114;51.138;6.008;2022-11-02T20:20:28;11.75;118.99
66312;HTU21D;53114;51.138;6.008;2022-11-02T20:23:29;11.82;118.99
66312;HTU21D;53114;51.138;6.008;2022-11-02T20:26:27;11.84;118.99